首页
METAR-TAF:

METAR-TAF

机场 :

Edenton, 北卡罗来纳州, 美国

纬度: 36-01-40N, 经度: 076-34-02W, 海拔: 6米

当前天气观测

该预报发布于24分钟前的02:20 UTC
风速4节,风向北转东北
温度 5°C
湿度 81%
气压 1016 hPa
能見度: 16.1公里
多云层高于2800英尺
阴天层高于3400英尺

METAR: KEDE 170220Z AUTO 02004KT 10SM BKN028 OVC034 05/02 A2999 RMK AO2 T00450024

时间: 21:44 (02:44 UTC)


TAF: 丢失

超过4000个机场的气象观测和天气预报(METAR&TAF报告)。

可查询的气象台以黄色和红色小点在地图上表示。

将鼠标移到小点上方,可查看气象台名称。

然后点击查看天气观测和预报。

如需切换地图:点击带黑十字的绿色按钮放大地图;点击带横线的绿色按钮缩小地图;或者点击绿色箭头查看邻近地区的地图。


METAR-TAF: